sensor_id;sensor_type;location;lat;lon;timestamp;P1;durP1;ratioP1;P2;durP2;ratioP2
51824;SDS011;37879;52.986;6.282;2023-05-07T00:01:35;10.63;;;8.57;;
51824;SDS011;37879;52.986;6.282;2023-05-07T00:04:01;11.80;;;8.20;;
51824;SDS011;37879;52.986;6.282;2023-05-07T00:06:27;14.40;;;8.75;;
51824;SDS011;37879;52.986;6.282;2023-05-07T00:08:54;12.80;;;8.10;;
51824;SDS011;37879;52.986;6.282;2023-05-07T00:11:21;12.63;;;8.40;;
51824;SDS011;37879;52.986;6.282;2023-05-07T00:13:47;10.27;;;7.32;;
51824;SDS011;37879;52.986;6.282;2023-05-07T00:16:13;10.25;;;7.68;;
51824;SDS011;37879;52.986;6.282;2023-05-07T00:18:39;15.07;;;8.18;;
51824;SDS011;37879;52.986;6.282;2023-05-07T00:21:04;11.32;;;8.27;;
51824;SDS011;37879;52.986;6.282;2023-05-07T00:23:30;11.48;;;8.38;;
51824;SDS011;37879;52.986;6.282;2023-05-07T00:25:56;10.82;;;8.20;;
51824;SDS011;37879;52.986;6.282;2023-05-07T00:28:21;10.63;;;8.23;;
51824;SDS011;37879;52.986;6.282;2023-05-07T00:30:47;11.13;;;8.40;;
51824;SDS011;37879;52.986;6.282;2023-05-07T00:33:12;12.73;;;9.20;;
51824;SDS011;37879;52.986;6.282;2023-05-07T00:35:38;13.05;;;8.88;;
51824;SDS011;37879;52.986;6.282;2023-05-07T00:38:04;10.98;;;8.05;;
51824;SDS011;37879;52.986;6.282;2023-05-07T00:40:29;23.15;;;9.65;;
51824;SDS011;37879;52.986;6.282;2023-05-07T00:42:55;10.50;;;8.32;;
51824;SDS011;37879;52.986;6.282;2023-05-07T00:45:28;13.77;;;8.57;;
51824;SDS011;37879;52.986;6.282;2023-05-07T00:47:54;16.75;;;9.85;;
51824;SDS011;37879;52.986;6.282;2023-05-07T00:50:22;12.93;;;9.05;;
51824;SDS011;37879;52.986;6.282;2023-05-07T00:52:47;15.43;;;9.77;;
51824;SDS011;37879;52.986;6.282;2023-05-07T00:55:13;12.18;;;9.63;;
51824;SDS011;37879;52.986;6.282;2023-05-07T00:57:40;14.57;;;9.68;;
51824;SDS011;37879;52.986;6.282;2023-05-07T01:00:07;12.70;;;9.63;;
51824;SDS011;37879;52.986;6.282;2023-05-07T01:02:35;15.48;;;11.32;;
51824;SDS011;37879;52.986;6.282;2023-05-07T01:05:01;16.20;;;11.68;;
51824;SDS011;37879;52.986;6.282;2023-05-07T01:07:31;18.50;;;12.60;;
51824;SDS011;37879;52.986;6.282;2023-05-07T01:10:00;16.98;;;11.55;;
51824;SDS011;37879;52.986;6.282;2023-05-07T01:12:27;15.60;;;11.82;;
51824;SDS011;37879;52.986;6.282;2023-05-07T01:14:54;18.75;;;12.65;;
51824;SDS011;37879;52.986;6.282;2023-05-07T01:17:20;17.02;;;12.93;;
51824;SDS011;37879;52.986;6.282;2023-05-07T01:19:46;14.73;;;11.65;;
51824;SDS011;37879;52.986;6.282;2023-05-07T01:22:13;23.77;;;14.13;;
51824;SDS011;37879;52.986;6.282;2023-05-07T01:24:41;19.30;;;13.27;;
51824;SDS011;37879;52.986;6.282;2023-05-07T01:27:08;21.40;;;15.30;;
51824;SDS011;37879;52.986;6.282;2023-05-07T01:29:33;24.10;;;14.57;;
51824;SDS011;37879;52.986;6.282;2023-05-07T01:32:00;20.73;;;13.82;;
51824;SDS011;37879;52.986;6.282;2023-05-07T01:34:27;18.52;;;14.02;;
51824;SDS011;37879;52.986;6.282;2023-05-07T01:36:56;21.77;;;15.38;;
51824;SDS011;37879;52.986;6.282;2023-05-07T01:39:24;21.20;;;15.20;;
51824;SDS011;37879;52.986;6.282;2023-05-07T01:41:51;18.13;;;13.70;;
51824;SDS011;37879;52.986;6.282;2023-05-07T01:44:19;19.50;;;15.10;;
51824;SDS011;37879;52.986;6.282;2023-05-07T01:46:45;19.98;;;14.27;;
51824;SDS011;37879;52.986;6.282;2023-05-07T01:49:12;23.33;;;16.58;;
51824;SDS011;37879;52.986;6.282;2023-05-07T01:51:38;22.17;;;14.82;;
51824;SDS011;37879;52.986;6.282;2023-05-07T01:54:05;21.25;;;15.63;;
51824;SDS011;37879;52.986;6.282;2023-05-07T01:56:31;23.25;;;14.98;;
51824;SDS011;37879;52.986;6.282;2023-05-07T01:58:57;22.52;;;14.77;;
51824;SDS011;37879;52.986;6.282;2023-05-07T02:01:22;19.45;;;14.65;;
51824;SDS011;37879;52.986;6.282;2023-05-07T02:03:48;25.48;;;16.33;;
51824;SDS011;37879;52.986;6.282;2023-05-07T02:06:14;24.13;;;15.80;;
51824;SDS011;37879;52.986;6.282;2023-05-07T02:08:40;25.00;;;15.63;;
51824;SDS011;37879;52.986;6.282;2023-05-07T02:11:05;20.90;;;15.40;;
51824;SDS011;37879;52.986;6.282;2023-05-07T02:13:32;22.80;;;15.63;;
51824;SDS011;37879;52.986;6.282;2023-05-07T02:15:59;25.10;;;17.38;;
51824;SDS011;37879;52.986;6.282;2023-05-07T02:18:25;20.50;;;16.67;;
51824;SDS011;37879;52.986;6.282;2023-05-07T02:20:51;21.95;;;16.23;;
51824;SDS011;37879;52.986;6.282;2023-05-07T02:23:16;24.95;;;16.75;;
51824;SDS011;37879;52.986;6.282;2023-05-07T02:25:42;22.27;;;16.23;;
51824;SDS011;37879;52.986;6.282;2023-05-07T02:28:07;23.52;;;17.02;;
51824;SDS011;37879;52.986;6.282;2023-05-07T02:30:33;24.27;;;17.58;;
51824;SDS011;37879;52.986;6.282;2023-05-07T02:33:00;22.40;;;16.77;;
51824;SDS011;37879;52.986;6.282;2023-05-07T02:35:25;23.42;;;16.10;;
51824;SDS011;37879;52.986;6.282;2023-05-07T02:37:51;24.23;;;17.33;;
51824;SDS011;37879;52.986;6.282;2023-05-07T02:40:17;22.42;;;16.15;;
51824;SDS011;37879;52.986;6.282;2023-05-07T02:42:42;23.77;;;17.38;;
51824;SDS011;37879;52.986;6.282;2023-05-07T02:45:08;24.52;;;17.52;;
51824;SDS011;37879;52.986;6.282;2023-05-07T02:47:34;21.23;;;17.08;;
51824;SDS011;37879;52.986;6.282;2023-05-07T02:50:00;25.20;;;17.75;;
51824;SDS011;37879;52.986;6.282;2023-05-07T02:52:26;26.13;;;16.40;;
51824;SDS011;37879;52.986;6.282;2023-05-07T02:54:51;25.92;;;17.35;;
51824;SDS011;37879;52.986;6.282;2023-05-07T02:57:17;22.75;;;16.27;;
51824;SDS011;37879;52.986;6.282;2023-05-07T02:59:43;23.30;;;17.30;;
51824;SDS011;37879;52.986;6.282;2023-05-07T03:02:08;26.48;;;18.40;;
51824;SDS011;37879;52.986;6.282;2023-05-07T03:04:34;26.73;;;18.30;;
51824;SDS011;37879;52.986;6.282;2023-05-07T03:07:00;24.63;;;18.65;;
51824;SDS011;37879;52.986;6.282;2023-05-07T03:09:26;25.65;;;18.00;;
51824;SDS011;37879;52.986;6.282;2023-05-07T03:11:51;26.02;;;17.25;;
51824;SDS011;37879;52.986;6.282;2023-05-07T03:14:17;27.63;;;18.38;;
51824;SDS011;37879;52.986;6.282;2023-05-07T03:16:43;25.08;;;17.23;;
51824;SDS011;37879;52.986;6.282;2023-05-07T03:19:08;26.20;;;19.13;;
51824;SDS011;37879;52.986;6.282;2023-05-07T03:21:34;25.90;;;18.20;;
51824;SDS011;37879;52.986;6.282;2023-05-07T03:24:00;26.58;;;19.80;;
51824;SDS011;37879;52.986;6.282;2023-05-07T03:26:26;30.48;;;19.45;;
51824;SDS011;37879;52.986;6.282;2023-05-07T03:28:51;27.52;;;18.25;;
51824;SDS011;37879;52.986;6.282;2023-05-07T03:31:20;31.02;;;21.23;;
51824;SDS011;37879;52.986;6.282;2023-05-07T03:33:56;30.08;;;20.17;;
51824;SDS011;37879;52.986;6.282;2023-05-07T03:36:22;31.20;;;20.83;;
51824;SDS011;37879;52.986;6.282;2023-05-07T03:38:48;30.52;;;20.63;;
51824;SDS011;37879;52.986;6.282;2023-05-07T03:41:14;32.63;;;21.45;;
51824;SDS011;37879;52.986;6.282;2023-05-07T03:43:40;31.75;;;22.15;;
51824;SDS011;37879;52.986;6.282;2023-05-07T03:46:06;28.50;;;19.50;;
51824;SDS011;37879;52.986;6.282;2023-05-07T03:48:32;34.05;;;21.58;;
51824;SDS011;37879;52.986;6.282;2023-05-07T03:50:57;32.70;;;22.00;;
51824;SDS011;37879;52.986;6.282;2023-05-07T03:53:23;35.13;;;22.25;;
51824;SDS011;37879;52.986;6.282;2023-05-07T03:55:49;34.05;;;23.10;;
51824;SDS011;37879;52.986;6.282;2023-05-07T03:58:15;30.65;;;21.10;;
51824;SDS011;37879;52.986;6.282;2023-05-07T04:00:41;36.15;;;22.27;;
51824;SDS011;37879;52.986;6.282;2023-05-07T04:03:07;34.00;;;22.60;;
51824;SDS011;37879;52.986;6.282;2023-05-07T04:05:33;35.63;;;22.70;;
51824;SDS011;37879;52.986;6.282;2023-05-07T04:07:59;35.85;;;23.55;;
51824;SDS011;37879;52.986;6.282;2023-05-07T04:10:26;40.08;;;25.10;;
51824;SDS011;37879;52.986;6.282;2023-05-07T04:12:53;35.33;;;24.55;;
51824;SDS011;37879;52.986;6.282;2023-05-07T04:15:18;39.30;;;24.77;;
51824;SDS011;37879;52.986;6.282;2023-05-07T04:17:44;36.58;;;24.35;;
51824;SDS011;37879;52.986;6.282;2023-05-07T04:20:12;39.28;;;25.10;;
51824;SDS011;37879;52.986;6.282;2023-05-07T04:22:40;39.38;;;24.23;;
51824;SDS011;37879;52.986;6.282;2023-05-07T04:25:05;37.78;;;24.20;;
51824;SDS011;37879;52.986;6.282;2023-05-07T04:27:33;40.95;;;26.02;;
51824;SDS011;37879;52.986;6.282;2023-05-07T04:29:58;37.70;;;24.40;;
51824;SDS011;37879;52.986;6.282;2023-05-07T04:32:25;36.70;;;24.00;;
51824;SDS011;37879;52.986;6.282;2023-05-07T04:34:54;44.15;;;27.88;;
51824;SDS011;37879;52.986;6.282;2023-05-07T04:37:20;39.55;;;27.25;;
51824;SDS011;37879;52.986;6.282;2023-05-07T04:39:46;44.97;;;27.40;;
51824;SDS011;37879;52.986;6.282;2023-05-07T04:42:15;38.72;;;24.58;;
51824;SDS011;37879;52.986;6.282;2023-05-07T04:44:43;42.05;;;27.15;;
51824;SDS011;37879;52.986;6.282;2023-05-07T04:47:09;42.85;;;25.85;;
51824;SDS011;37879;52.986;6.282;2023-05-07T04:49:35;35.72;;;23.52;;
51824;SDS011;37879;52.986;6.282;2023-05-07T04:52:01;40.72;;;25.95;;
51824;SDS011;37879;52.986;6.282;2023-05-07T04:54:26;39.92;;;25.98;;
51824;SDS011;37879;52.986;6.282;2023-05-07T04:56:52;38.53;;;24.90;;
51824;SDS011;37879;52.986;6.282;2023-05-07T04:59:17;34.00;;;25.15;;
51824;SDS011;37879;52.986;6.282;2023-05-07T05:01:43;38.33;;;24.27;;
51824;SDS011;37879;52.986;6.282;2023-05-07T05:04:09;38.20;;;24.75;;
51824;SDS011;37879;52.986;6.282;2023-05-07T05:06:35;40.97;;;26.20;;
51824;SDS011;37879;52.986;6.282;2023-05-07T05:09:00;37.78;;;24.08;;
51824;SDS011;37879;52.986;6.282;2023-05-07T05:11:26;37.30;;;24.48;;
51824;SDS011;37879;52.986;6.282;2023-05-07T05:13:52;37.65;;;24.00;;
51824;SDS011;37879;52.986;6.282;2023-05-07T05:16:17;34.22;;;22.55;;
51824;SDS011;37879;52.986;6.282;2023-05-07T05:18:43;30.73;;;22.67;;
51824;SDS011;37879;52.986;6.282;2023-05-07T05:21:09;36.35;;;23.65;;
51824;SDS011;37879;52.986;6.282;2023-05-07T05:23:34;30.02;;;21.77;;
51824;SDS011;37879;52.986;6.282;2023-05-07T05:26:00;35.30;;;24.27;;
51824;SDS011;37879;52.986;6.282;2023-05-07T05:28:25;32.95;;;22.20;;
51824;SDS011;37879;52.986;6.282;2023-05-07T05:30:52;31.85;;;21.75;;
51824;SDS011;37879;52.986;6.282;2023-05-07T05:33:18;28.08;;;21.05;;
51824;SDS011;37879;52.986;6.282;2023-05-07T05:35:44;31.67;;;20.33;;
51824;SDS011;37879;52.986;6.282;2023-05-07T05:38:10;29.55;;;20.55;;
51824;SDS011;37879;52.986;6.282;2023-05-07T05:40:35;28.02;;;19.30;;
51824;SDS011;37879;52.986;6.282;2023-05-07T05:43:01;25.70;;;18.65;;
51824;SDS011;37879;52.986;6.282;2023-05-07T05:45:27;30.75;;;18.73;;
51824;SDS011;37879;52.986;6.282;2023-05-07T05:47:52;29.15;;;19.65;;
51824;SDS011;37879;52.986;6.282;2023-05-07T05:50:18;26.88;;;20.08;;
51824;SDS011;37879;52.986;6.282;2023-05-07T05:52:44;30.42;;;20.95;;
51824;SDS011;37879;52.986;6.282;2023-05-07T05:55:09;29.15;;;20.77;;
51824;SDS011;37879;52.986;6.282;2023-05-07T05:57:35;32.22;;;21.67;;
51824;SDS011;37879;52.986;6.282;2023-05-07T06:00:01;27.52;;;19.10;;
51824;SDS011;37879;52.986;6.282;2023-05-07T06:02:27;28.70;;;21.02;;
51824;SDS011;37879;52.986;6.282;2023-05-07T06:04:53;27.90;;;20.58;;
51824;SDS011;37879;52.986;6.282;2023-05-07T06:07:19;27.67;;;19.33;;
51824;SDS011;37879;52.986;6.282;2023-05-07T06:09:44;27.13;;;19.30;;
51824;SDS011;37879;52.986;6.282;2023-05-07T06:12:10;26.65;;;18.98;;
51824;SDS011;37879;52.986;6.282;2023-05-07T06:14:36;27.55;;;19.88;;
51824;SDS011;37879;52.986;6.282;2023-05-07T06:17:02;28.38;;;20.27;;
51824;SDS011;37879;52.986;6.282;2023-05-07T06:19:27;27.27;;;18.77;;
51824;SDS011;37879;52.986;6.282;2023-05-07T06:21:53;25.42;;;18.38;;
51824;SDS011;37879;52.986;6.282;2023-05-07T06:24:21;22.75;;;16.55;;
51824;SDS011;37879;52.986;6.282;2023-05-07T06:26:46;26.20;;;18.88;;
51824;SDS011;37879;52.986;6.282;2023-05-07T06:29:12;28.25;;;19.67;;
51824;SDS011;37879;52.986;6.282;2023-05-07T06:31:37;27.70;;;18.63;;
51824;SDS011;37879;52.986;6.282;2023-05-07T06:34:03;26.02;;;18.88;;
51824;SDS011;37879;52.986;6.282;2023-05-07T06:36:29;26.13;;;18.50;;
51824;SDS011;37879;52.986;6.282;2023-05-07T06:38:56;24.73;;;17.15;;
51824;SDS011;37879;52.986;6.282;2023-05-07T06:41:21;25.40;;;18.20;;
51824;SDS011;37879;52.986;6.282;2023-05-07T06:43:47;26.15;;;19.05;;
51824;SDS011;37879;52.986;6.282;2023-05-07T06:46:13;24.98;;;17.63;;
51824;SDS011;37879;52.986;6.282;2023-05-07T06:48:38;25.42;;;19.30;;
51824;SDS011;37879;52.986;6.282;2023-05-07T06:51:04;25.58;;;17.30;;
51824;SDS011;37879;52.986;6.282;2023-05-07T06:53:29;25.75;;;19.90;;
51824;SDS011;37879;52.986;6.282;2023-05-07T06:55:55;24.65;;;17.67;;
51824;SDS011;37879;52.986;6.282;2023-05-07T06:58:22;24.52;;;17.98;;
51824;SDS011;37879;52.986;6.282;2023-05-07T07:00:48;26.33;;;19.00;;
51824;SDS011;37879;52.986;6.282;2023-05-07T07:03:13;23.85;;;17.85;;
51824;SDS011;37879;52.986;6.282;2023-05-07T07:05:42;27.27;;;17.92;;
51824;SDS011;37879;52.986;6.282;2023-05-07T07:08:07;24.05;;;16.73;;
51824;SDS011;37879;52.986;6.282;2023-05-07T07:10:33;22.60;;;17.63;;
51824;SDS011;37879;52.986;6.282;2023-05-07T07:12:58;26.33;;;19.13;;
51824;SDS011;37879;52.986;6.282;2023-05-07T07:15:25;24.13;;;18.40;;
51824;SDS011;37879;52.986;6.282;2023-05-07T07:17:51;25.42;;;18.83;;
51824;SDS011;37879;52.986;6.282;2023-05-07T07:20:17;23.48;;;17.27;;
51824;SDS011;37879;52.986;6.282;2023-05-07T07:22:42;22.77;;;17.80;;
51824;SDS011;37879;52.986;6.282;2023-05-07T07:25:08;25.65;;;18.73;;
51824;SDS011;37879;52.986;6.282;2023-05-07T07:27:34;25.85;;;18.80;;
51824;SDS011;37879;52.986;6.282;2023-05-07T07:30:00;23.15;;;17.30;;
51824;SDS011;37879;52.986;6.282;2023-05-07T07:32:26;25.25;;;18.83;;
51824;SDS011;37879;52.986;6.282;2023-05-07T07:34:52;24.65;;;17.65;;
51824;SDS011;37879;52.986;6.282;2023-05-07T07:37:17;28.23;;;18.98;;
51824;SDS011;37879;52.986;6.282;2023-05-07T07:39:43;24.95;;;17.80;;
51824;SDS011;37879;52.986;6.282;2023-05-07T07:42:09;27.17;;;18.80;;
51824;SDS011;37879;52.986;6.282;2023-05-07T07:44:34;27.05;;;19.10;;
51824;SDS011;37879;52.986;6.282;2023-05-07T07:47:00;24.98;;;18.67;;
51824;SDS011;37879;52.986;6.282;2023-05-07T07:49:26;25.60;;;18.77;;
51824;SDS011;37879;52.986;6.282;2023-05-07T07:51:52;24.98;;;18.67;;
51824;SDS011;37879;52.986;6.282;2023-05-07T07:54:17;26.02;;;18.92;;
51824;SDS011;37879;52.986;6.282;2023-05-07T07:56:43;23.80;;;18.73;;
51824;SDS011;37879;52.986;6.282;2023-05-07T07:59:09;25.02;;;18.77;;
51824;SDS011;37879;52.986;6.282;2023-05-07T08:01:34;26.58;;;18.13;;
51824;SDS011;37879;52.986;6.282;2023-05-07T08:04:00;27.33;;;18.55;;
51824;SDS011;37879;52.986;6.282;2023-05-07T08:06:28;24.67;;;18.55;;
51824;SDS011;37879;52.986;6.282;2023-05-07T08:08:54;24.38;;;17.40;;
51824;SDS011;37879;52.986;6.282;2023-05-07T08:11:20;21.67;;;17.67;;
51824;SDS011;37879;52.986;6.282;2023-05-07T08:13:46;23.10;;;16.95;;
51824;SDS011;37879;52.986;6.282;2023-05-07T08:16:12;25.15;;;17.98;;
51824;SDS011;37879;52.986;6.282;2023-05-07T08:18:38;23.17;;;17.50;;
51824;SDS011;37879;52.986;6.282;2023-05-07T08:21:04;26.45;;;18.90;;
51824;SDS011;37879;52.986;6.282;2023-05-07T08:23:30;27.25;;;20.25;;
51824;SDS011;37879;52.986;6.282;2023-05-07T08:25:55;25.70;;;19.13;;
51824;SDS011;37879;52.986;6.282;2023-05-07T08:28:21;23.42;;;17.58;;
51824;SDS011;37879;52.986;6.282;2023-05-07T08:30:47;24.20;;;17.48;;
51824;SDS011;37879;52.986;6.282;2023-05-07T08:33:13;23.60;;;17.13;;
51824;SDS011;37879;52.986;6.282;2023-05-07T08:35:38;25.63;;;17.80;;
51824;SDS011;37879;52.986;6.282;2023-05-07T08:38:04;27.98;;;19.40;;
51824;SDS011;37879;52.986;6.282;2023-05-07T08:40:30;27.50;;;19.70;;
51824;SDS011;37879;52.986;6.282;2023-05-07T08:43:04;27.63;;;20.40;;
51824;SDS011;37879;52.986;6.282;2023-05-07T08:45:31;26.10;;;20.67;;
51824;SDS011;37879;52.986;6.282;2023-05-07T08:47:59;24.17;;;17.30;;
51824;SDS011;37879;52.986;6.282;2023-05-07T08:50:28;23.75;;;18.00;;
51824;SDS011;37879;52.986;6.282;2023-05-07T08:52:54;26.52;;;19.40;;
51824;SDS011;37879;52.986;6.282;2023-05-07T08:55:22;27.95;;;19.60;;
51824;SDS011;37879;52.986;6.282;2023-05-07T08:57:48;24.45;;;19.63;;
51824;SDS011;37879;52.986;6.282;2023-05-07T09:00:15;27.52;;;18.60;;
51824;SDS011;37879;52.986;6.282;2023-05-07T09:02:41;25.52;;;19.58;;
51824;SDS011;37879;52.986;6.282;2023-05-07T09:05:06;25.02;;;19.50;;
51824;SDS011;37879;52.986;6.282;2023-05-07T09:07:33;28.98;;;20.17;;
51824;SDS011;37879;52.986;6.282;2023-05-07T09:10:01;24.90;;;18.13;;
51824;SDS011;37879;52.986;6.282;2023-05-07T09:12:30;26.92;;;20.13;;
51824;SDS011;37879;52.986;6.282;2023-05-07T09:14:56;25.27;;;19.02;;
51824;SDS011;37879;52.986;6.282;2023-05-07T09:17:22;26.80;;;18.15;;
51824;SDS011;37879;52.986;6.282;2023-05-07T09:19:48;31.83;;;20.55;;
51824;SDS011;37879;52.986;6.282;2023-05-07T09:22:13;27.90;;;21.55;;
51824;SDS011;37879;52.986;6.282;2023-05-07T09:24:39;26.33;;;19.30;;
51824;SDS011;37879;52.986;6.282;2023-05-07T09:27:05;26.70;;;19.48;;
51824;SDS011;37879;52.986;6.282;2023-05-07T09:29:31;27.50;;;20.20;;
51824;SDS011;37879;52.986;6.282;2023-05-07T09:32:04;24.13;;;17.35;;
51824;SDS011;37879;52.986;6.282;2023-05-07T09:34:31;27.92;;;20.35;;
51824;SDS011;37879;52.986;6.282;2023-05-07T09:36:58;25.95;;;19.05;;
51824;SDS011;37879;52.986;6.282;2023-05-07T09:39:25;24.27;;;18.42;;
51824;SDS011;37879;52.986;6.282;2023-05-07T09:42:03;24.27;;;18.55;;
51824;SDS011;37879;52.986;6.282;2023-05-07T09:44:31;25.02;;;18.48;;
51824;SDS011;37879;52.986;6.282;2023-05-07T09:46:57;24.77;;;18.90;;
51824;SDS011;37879;52.986;6.282;2023-05-07T09:49:25;25.98;;;19.60;;
51824;SDS011;37879;52.986;6.282;2023-05-07T09:51:55;24.52;;;19.77;;
51824;SDS011;37879;52.986;6.282;2023-05-07T09:54:21;25.20;;;18.90;;
51824;SDS011;37879;52.986;6.282;2023-05-07T09:56:48;26.15;;;20.27;;
51824;SDS011;37879;52.986;6.282;2023-05-07T09:59:15;25.88;;;19.77;;
51824;SDS011;37879;52.986;6.282;2023-05-07T10:01:42;25.48;;;17.45;;
51824;SDS011;37879;52.986;6.282;2023-05-07T10:04:09;25.20;;;18.73;;
51824;SDS011;37879;52.986;6.282;2023-05-07T10:06:35;23.88;;;18.73;;
51824;SDS011;37879;52.986;6.282;2023-05-07T10:09:05;28.02;;;21.05;;
51824;SDS011;37879;52.986;6.282;2023-05-07T10:11:34;24.98;;;19.02;;
51824;SDS011;37879;52.986;6.282;2023-05-07T10:14:01;26.60;;;18.63;;
51824;SDS011;37879;52.986;6.282;2023-05-07T10:16:28;25.50;;;20.75;;
51824;SDS011;37879;52.986;6.282;2023-05-07T10:18:58;22.10;;;17.75;;
51824;SDS011;37879;52.986;6.282;2023-05-07T10:21:24;23.15;;;17.45;;
51824;SDS011;37879;52.986;6.282;2023-05-07T10:24:05;20.50;;;16.10;;
51824;SDS011;37879;52.986;6.282;2023-05-07T10:26:39;24.77;;;19.67;;
51824;SDS011;37879;52.986;6.282;2023-05-07T10:29:07;22.30;;;16.77;;
51824;SDS011;37879;52.986;6.282;2023-05-07T10:34:11;22.60;;;18.58;;
51824;SDS011;37879;52.986;6.282;2023-05-07T10:36:40;24.65;;;18.25;;
51824;SDS011;37879;52.986;6.282;2023-05-07T10:39:07;26.35;;;19.67;;
51824;SDS011;37879;52.986;6.282;2023-05-07T10:41:33;22.48;;;18.95;;
51824;SDS011;37879;52.986;6.282;2023-05-07T10:43:58;20.67;;;17.40;;
51824;SDS011;37879;52.986;6.282;2023-05-07T10:46:27;24.63;;;18.02;;
51824;SDS011;37879;52.986;6.282;2023-05-07T10:51:33;20.83;;;17.48;;
51824;SDS011;37879;52.986;6.282;2023-05-07T10:56:34;24.67;;;18.03;;
51824;SDS011;37879;52.986;6.282;2023-05-07T11:01:52;21.20;;;16.73;;
51824;SDS011;37879;52.986;6.282;2023-05-07T11:04:19;20.40;;;16.17;;
51824;SDS011;37879;52.986;6.282;2023-05-07T11:07:09;18.85;;;14.90;;
51824;SDS011;37879;52.986;6.282;2023-05-07T11:15:11;19.92;;;16.90;;
51824;SDS011;37879;52.986;6.282;2023-05-07T11:17:57;20.92;;;16.58;;
51824;SDS011;37879;52.986;6.282;2023-05-07T11:20:43;20.35;;;15.60;;
51824;SDS011;37879;52.986;6.282;2023-05-07T11:26:07;19.55;;;15.57;;
51824;SDS011;37879;52.986;6.282;2023-05-07T11:28:42;20.63;;;16.70;;
51824;SDS011;37879;52.986;6.282;2023-05-07T11:31:09;21.50;;;16.73;;
51824;SDS011;37879;52.986;6.282;2023-05-07T11:33:35;16.80;;;13.68;;
51824;SDS011;37879;52.986;6.282;2023-05-07T11:36:04;19.83;;;16.00;;
51824;SDS011;37879;52.986;6.282;2023-05-07T11:38:35;18.02;;;14.57;;
51824;SDS011;37879;52.986;6.282;2023-05-07T11:41:02;18.92;;;15.65;;
51824;SDS011;37879;52.986;6.282;2023-05-07T11:43:30;17.48;;;14.73;;
51824;SDS011;37879;52.986;6.282;2023-05-07T11:46:04;18.05;;;14.60;;
51824;SDS011;37879;52.986;6.282;2023-05-07T11:48:32;16.30;;;13.32;;
51824;SDS011;37879;52.986;6.282;2023-05-07T11:53:26;19.17;;;14.60;;
51824;SDS011;37879;52.986;6.282;2023-05-07T11:55:59;17.45;;;15.63;;
51824;SDS011;37879;52.986;6.282;2023-05-07T11:58:25;18.98;;;14.93;;
51824;SDS011;37879;52.986;6.282;2023-05-07T12:00:51;15.43;;;12.52;;
51824;SDS011;37879;52.986;6.282;2023-05-07T12:03:17;17.45;;;14.90;;
51824;SDS011;37879;52.986;6.282;2023-05-07T12:05:43;15.88;;;12.98;;
51824;SDS011;37879;52.986;6.282;2023-05-07T12:08:19;16.00;;;13.40;;
51824;SDS011;37879;52.986;6.282;2023-05-07T12:10:47;17.38;;;13.57;;
51824;SDS011;37879;52.986;6.282;2023-05-07T12:15:43;14.85;;;12.90;;
51824;SDS011;37879;52.986;6.282;2023-05-07T12:18:12;14.68;;;12.65;;
51824;SDS011;37879;52.986;6.282;2023-05-07T12:20:39;15.98;;;12.77;;
51824;SDS011;37879;52.986;6.282;2023-05-07T12:23:04;14.63;;;11.82;;
51824;SDS011;37879;52.986;6.282;2023-05-07T12:25:40;14.23;;;12.23;;
51824;SDS011;37879;52.986;6.282;2023-05-07T12:28:15;13.90;;;11.88;;
51824;SDS011;37879;52.986;6.282;2023-05-07T12:30:42;14.43;;;12.00;;
51824;SDS011;37879;52.986;6.282;2023-05-07T12:33:09;15.02;;;13.25;;
51824;SDS011;37879;52.986;6.282;2023-05-07T12:35:39;14.77;;;13.13;;
51824;SDS011;37879;52.986;6.282;2023-05-07T12:38:09;16.00;;;12.57;;
51824;SDS011;37879;52.986;6.282;2023-05-07T12:40:40;15.00;;;12.55;;
51824;SDS011;37879;52.986;6.282;2023-05-07T12:43:07;15.57;;;13.02;;
51824;SDS011;37879;52.986;6.282;2023-05-07T12:45:40;14.48;;;12.75;;
51824;SDS011;37879;52.986;6.282;2023-05-07T12:48:06;15.45;;;12.23;;
51824;SDS011;37879;52.986;6.282;2023-05-07T12:50:35;16.33;;;12.65;;
51824;SDS011;37879;52.986;6.282;2023-05-07T12:53:02;16.42;;;13.07;;
51824;SDS011;37879;52.986;6.282;2023-05-07T12:55:31;17.00;;;13.30;;
51824;SDS011;37879;52.986;6.282;2023-05-07T12:57:57;15.55;;;12.73;;
51824;SDS011;37879;52.986;6.282;2023-05-07T13:00:36;16.88;;;13.25;;
51824;SDS011;37879;52.986;6.282;2023-05-07T13:03:02;16.13;;;13.05;;
51824;SDS011;37879;52.986;6.282;2023-05-07T13:05:28;19.00;;;16.58;;
51824;SDS011;37879;52.986;6.282;2023-05-07T13:07:54;17.95;;;14.65;;
51824;SDS011;37879;52.986;6.282;2023-05-07T13:10:21;19.10;;;15.65;;
51824;SDS011;37879;52.986;6.282;2023-05-07T13:12:48;21.23;;;15.32;;
51824;SDS011;37879;52.986;6.282;2023-05-07T13:15:14;18.45;;;15.02;;
51824;SDS011;37879;52.986;6.282;2023-05-07T13:17:40;16.30;;;14.55;;
51824;SDS011;37879;52.986;6.282;2023-05-07T13:20:05;17.88;;;14.23;;
51824;SDS011;37879;52.986;6.282;2023-05-07T13:22:33;16.92;;;13.18;;
51824;SDS011;37879;52.986;6.282;2023-05-07T13:24:58;19.98;;;14.75;;
51824;SDS011;37879;52.986;6.282;2023-05-07T13:27:24;14.57;;;12.85;;
51824;SDS011;37879;52.986;6.282;2023-05-07T13:29:51;15.57;;;13.95;;
51824;SDS011;37879;52.986;6.282;2023-05-07T13:32:16;13.55;;;12.25;;
51824;SDS011;37879;52.986;6.282;2023-05-07T13:34:42;15.15;;;13.55;;
51824;SDS011;37879;52.986;6.282;2023-05-07T13:37:08;15.80;;;14.02;;
51824;SDS011;37879;52.986;6.282;2023-05-07T13:39:33;14.93;;;13.30;;
51824;SDS011;37879;52.986;6.282;2023-05-07T13:41:59;14.52;;;12.80;;
51824;SDS011;37879;52.986;6.282;2023-05-07T13:44:25;14.90;;;12.48;;
51824;SDS011;37879;52.986;6.282;2023-05-07T13:46:51;13.75;;;12.35;;
51824;SDS011;37879;52.986;6.282;2023-05-07T13:49:17;14.65;;;11.95;;
51824;SDS011;37879;52.986;6.282;2023-05-07T13:51:42;16.25;;;13.43;;
51824;SDS011;37879;52.986;6.282;2023-05-07T13:54:08;15.20;;;12.38;;
51824;SDS011;37879;52.986;6.282;2023-05-07T13:56:34;12.88;;;11.48;;
51824;SDS011;37879;52.986;6.282;2023-05-07T13:59:00;15.65;;;13.52;;
51824;SDS011;37879;52.986;6.282;2023-05-07T14:01:26;15.23;;;12.43;;
51824;SDS011;37879;52.986;6.282;2023-05-07T14:03:52;13.73;;;11.63;;
51824;SDS011;37879;52.986;6.282;2023-05-07T14:06:17;13.30;;;11.65;;
51824;SDS011;37879;52.986;6.282;2023-05-07T14:08:43;13.75;;;12.25;;
51824;SDS011;37879;52.986;6.282;2023-05-07T14:11:08;14.25;;;11.20;;
51824;SDS011;37879;52.986;6.282;2023-05-07T14:13:34;14.13;;;11.55;;
51824;SDS011;37879;52.986;6.282;2023-05-07T14:16:00;13.02;;;11.63;;
51824;SDS011;37879;52.986;6.282;2023-05-07T14:18:25;15.07;;;11.15;;
51824;SDS011;37879;52.986;6.282;2023-05-07T14:20:53;12.38;;;11.05;;
51824;SDS011;37879;52.986;6.282;2023-05-07T14:23:19;14.68;;;11.80;;
51824;SDS011;37879;52.986;6.282;2023-05-07T14:25:47;14.15;;;11.70;;
51824;SDS011;37879;52.986;6.282;2023-05-07T14:28:12;11.55;;;9.75;;
51824;SDS011;37879;52.986;6.282;2023-05-07T14:30:38;13.95;;;11.57;;
51824;SDS011;37879;52.986;6.282;2023-05-07T14:33:04;13.90;;;11.07;;
51824;SDS011;37879;52.986;6.282;2023-05-07T14:35:30;12.48;;;10.73;;
51824;SDS011;37879;52.986;6.282;2023-05-07T14:37:55;12.55;;;10.82;;
51824;SDS011;37879;52.986;6.282;2023-05-07T14:40:21;12.40;;;10.70;;
51824;SDS011;37879;52.986;6.282;2023-05-07T14:42:47;12.65;;;10.95;;
51824;SDS011;37879;52.986;6.282;2023-05-07T14:45:12;13.20;;;11.65;;